Time;durP1;ratioP1;P1;durP2;ratioP2;P2;SDS_P1;SDS_P2;PMS_P1;PMS_P2;Temp;Humidity;BMP_temperature;BMP_pressure;BME280_temperature;BME280_humidity;BME280_pressure;Samples;Min_cycle;Max_cycle;Signal;HPM_P1;HPM_P2
2021/12/08 00:00:38;;;;;;;9.00;4.75;;;3.50;99.90;;;;;;5147831;27;20036;-77
2021/12/08 00:03:08;;;;;;;9.05;5.25;;;3.50;99.90;;;;;;5154822;27;20047;-76
2021/12/08 00:05:35;;;;;;;10.40;5.22;;;3.40;99.90;;;;;;5137898;27;20498;-76
2021/12/08 00:08:01;;;;;;;7.90;4.75;;;3.40;99.90;;;;;;5156844;27;20443;-77
2021/12/08 00:13:04;;;;;;;11.45;5.15;;;3.50;99.90;;;;;;5156534;27;20050;-76
2021/12/08 00:15:39;;;;;;;9.15;5.40;;;3.50;99.90;;;;;;5156412;27;20048;-77
2021/12/08 00:18:07;;;;;;;10.68;5.32;;;3.50;99.90;;;;;;5155313;27;20398;-77
2021/12/08 00:20:35;;;;;;;9.68;5.10;;;3.50;99.90;;;;;;5155383;27;20054;-77
2021/12/08 00:23:03;;;;;;;8.05;5.00;;;3.50;99.90;;;;;;5150741;27;20043;-76
2021/12/08 00:25:29;;;;;;;9.93;5.45;;;3.50;99.90;;;;;;5155579;27;20030;-75
2021/12/08 00:27:56;;;;;;;8.77;4.80;;;3.60;99.90;;;;;;5156466;27;20066;-76
2021/12/08 00:30:22;;;;;;;9.32;4.90;;;3.50;99.90;;;;;;5156501;27;20051;-76
2021/12/08 00:32:48;;;;;;;9.20;5.13;;;3.60;99.90;;;;;;5154918;27;20065;-75
2021/12/08 00:35:15;;;;;;;7.03;4.35;;;3.50;99.90;;;;;;5155965;27;20031;-75
2021/12/08 00:37:41;;;;;;;7.30;4.57;;;3.60;99.90;;;;;;5153575;27;20098;-76
2021/12/08 00:40:10;;;;;;;10.23;4.80;;;3.60;99.90;;;;;;5156235;27;20046;-75
2021/12/08 00:42:36;;;;;;;7.95;5.00;;;3.50;99.90;;;;;;5136930;27;20038;-75
2021/12/08 00:45:05;;;;;;;11.30;5.13;;;3.60;99.90;;;;;;5156754;27;20045;-76
2021/12/08 00:47:30;;;;;;;8.95;4.72;;;3.60;99.90;;;;;;5137252;27;20048;-75
2021/12/08 00:49:56;;;;;;;7.18;4.93;;;3.60;99.90;;;;;;5155151;27;20059;-75
2021/12/08 00:52:27;;;;;;;9.70;4.80;;;3.60;99.90;;;;;;5137644;27;20130;-74
2021/12/08 00:54:52;;;;;;;7.90;5.10;;;3.60;99.90;;;;;;5155422;27;20050;-76
2021/12/08 00:57:18;;;;;;;10.98;4.97;;;3.60;99.90;;;;;;5155945;27;20050;-76
2021/12/08 00:59:44;;;;;;;8.63;4.95;;;3.60;99.90;;;;;;5137168;27;20038;-75
2021/12/08 01:02:09;;;;;;;8.35;4.90;;;3.60;99.90;;;;;;5155939;27;20098;-76
2021/12/08 01:04:35;;;;;;;9.57;4.60;;;3.70;99.90;;;;;;5136650;27;20043;-75
2021/12/08 01:07:02;;;;;;;8.40;5.25;;;3.60;99.90;;;;;;5137477;27;20414;-74
2021/12/08 01:09:28;;;;;;;8.35;5.30;;;3.60;99.90;;;;;;5155605;27;20042;-75
2021/12/08 01:11:56;;;;;;;6.97;5.00;;;3.60;99.90;;;;;;5155244;27;20167;-75
2021/12/08 01:14:22;;;;;;;7.93;4.80;;;3.50;99.90;;;;;;5155403;27;20103;-75
2021/12/08 01:16:48;;;;;;;8.85;5.15;;;3.60;99.90;;;;;;5154842;27;20039;-75
2021/12/08 01:19:14;;;;;;;7.90;4.93;;;3.50;99.90;;;;;;5155792;27;20103;-75
2021/12/08 01:21:40;;;;;;;8.20;4.90;;;3.60;99.90;;;;;;5154704;27;20035;-74
2021/12/08 01:24:05;;;;;;;8.75;4.90;;;3.60;99.90;;;;;;5145092;27;20069;-75
2021/12/08 01:26:31;;;;;;;6.78;4.40;;;3.60;99.90;;;;;;5135144;27;20492;-75
2021/12/08 01:28:57;;;;;;;6.18;4.50;;;3.60;99.90;;;;;;5154842;27;20047;-75
2021/12/08 01:31:24;;;;;;;10.40;4.78;;;3.60;99.90;;;;;;5155401;27;20465;-75
2021/12/08 01:33:50;;;;;;;10.55;5.18;;;3.60;99.90;;;;;;5154450;27;20039;-75
2021/12/08 01:36:16;;;;;;;7.53;4.65;;;3.60;99.90;;;;;;5155042;27;20070;-76
2021/12/08 01:38:43;;;;;;;6.50;4.50;;;3.60;99.90;;;;;;5154903;27;20495;-75
2021/12/08 01:41:09;;;;;;;6.72;4.15;;;3.70;99.90;;;;;;5155098;27;20043;-75
2021/12/08 01:45:57;;;;;;;8.63;4.28;;;3.70;99.90;;;;;;5154920;27;20130;-73
2021/12/08 01:46:28;;;;;;;6.75;4.40;;;3.60;99.90;;;;;;5154392;27;20043;-75
2021/12/08 01:48:54;;;;;;;6.43;3.88;;;3.70;99.90;;;;;;5153974;27;20059;-76
2021/12/08 01:51:20;;;;;;;5.22;3.80;;;3.70;99.90;;;;;;5154878;27;20046;-75
2021/12/08 01:53:52;;;;;;;6.53;3.67;;;3.70;99.90;;;;;;5153890;27;20070;-75
2021/12/08 01:56:21;;;;;;;8.95;4.00;;;3.70;99.90;;;;;;5151636;27;20487;-75
2021/12/08 01:58:47;;;;;;;6.28;3.97;;;3.70;99.90;;;;;;5153786;27;20113;-76
2021/12/08 02:01:16;;;;;;;11.27;3.90;;;3.80;99.90;;;;;;5136449;27;20448;-75
2021/12/08 02:03:43;;;;;;;7.85;3.88;;;3.70;99.90;;;;;;5154283;27;20057;-75
2021/12/08 02:06:10;;;;;;;5.40;4.25;;;3.80;99.90;;;;;;5154133;27;20099;-75
2021/12/08 02:08:37;;;;;;;6.13;3.72;;;3.70;99.90;;;;;;5154760;27;20042;-74
2021/12/08 02:11:05;;;;;;;5.10;3.40;;;3.70;99.90;;;;;;5153248;27;20042;-75
2021/12/08 02:13:37;;;;;;;6.88;4.05;;;3.70;99.90;;;;;;5154767;27;20076;-75
2021/12/08 02:16:08;;;;;;;6.07;4.25;;;3.70;99.90;;;;;;5153649;27;20031;-75
2021/12/08 02:18:34;;;;;;;;;;;3.70;99.90;;;;;;5155195;27;20100;-75
2021/12/08 02:21:03;;;;;;;7.07;3.78;;;3.70;99.90;;;;;;5153441;27;19914;-75
2021/12/08 02:23:31;;;;;;;6.63;3.85;;;3.70;99.90;;;;;;5154589;27;20082;-75
2021/12/08 02:25:57;;;;;;;7.65;3.92;;;3.70;99.90;;;;;;5153087;27;20060;-75
2021/12/08 02:28:24;;;;;;;9.68;4.10;;;3.70;99.90;;;;;;5118601;27;20526;-74
2021/12/08 02:30:57;;;;;;;6.50;3.95;;;3.80;99.90;;;;;;5136265;27;20070;-74
2021/12/08 02:47:16;;;;;;;4.85;4.35;;;3.90;99.90;;;;;;5153758;27;20091;-75
2021/12/08 02:49:43;;;;;;;10.50;4.93;;;3.90;99.90;;;;;;5134568;27;20049;-75
2021/12/08 02:52:11;;;;;;;9.07;4.93;;;3.90;99.90;;;;;;5153908;27;20050;-74
2021/12/08 02:54:40;;;;;;;7.88;4.97;;;3.90;99.90;;;;;;5154205;27;20465;-75
2021/12/08 02:57:07;;;;;;;8.45;4.88;;;3.90;99.90;;;;;;5134020;27;20038;-74
2021/12/08 02:59:33;;;;;;;7.82;5.40;;;3.90;99.90;;;;;;5148731;27;20039;-75
2021/12/08 03:01:59;;;;;;;8.60;5.63;;;3.90;99.90;;;;;;5136909;27;20557;-76
2021/12/08 03:04:25;;;;;;;10.02;5.65;;;3.90;99.90;;;;;;5141902;27;20042;-76
2021/12/08 03:06:51;;;;;;;10.15;5.40;;;3.90;99.90;;;;;;5157588;27;20106;-73
2021/12/08 03:09:17;;;;;;;10.52;6.07;;;4.00;99.90;;;;;;5157793;27;20042;-75
2021/12/08 03:11:43;;;;;;;7.75;5.65;;;4.00;99.90;;;;;;5158103;27;20049;-73
2021/12/08 03:14:12;;;;;;;11.18;7.20;;;4.00;99.90;;;;;;5157626;27;20116;-74
2021/12/08 03:16:41;;;;;;;10.00;6.70;;;4.00;99.90;;;;;;5158036;27;20051;-74
2021/12/08 03:19:08;;;;;;;9.82;6.68;;;4.00;99.90;;;;;;5157130;27;20034;-74
2021/12/08 03:21:34;;;;;;;7.45;6.40;;;4.00;99.90;;;;;;5157861;27;20078;-72
2021/12/08 03:26:44;;;;;;;8.15;6.18;;;4.00;99.90;;;;;;5157599;27;20078;-74
2021/12/08 03:29:20;;;;;;;9.00;7.03;;;4.00;99.90;;;;;;5156739;27;20146;-75
2021/12/08 03:31:47;;;;;;;10.18;6.82;;;4.00;99.90;;;;;;5157629;27;20046;-75
2021/12/08 03:34:14;;;;;;;9.75;7.05;;;4.10;99.90;;;;;;5139988;27;20392;-75
2021/12/08 03:36:40;;;;;;;8.13;6.65;;;4.10;99.90;;;;;;5153666;27;20046;-75
2021/12/08 03:39:06;;;;;;;9.95;7.10;;;4.10;99.90;;;;;;5157253;27;20151;-74
2021/12/08 03:41:34;;;;;;;9.57;7.25;;;4.10;99.90;;;;;;5139670;27;20093;-75
2021/12/08 03:44:01;;;;;;;11.02;7.35;;;4.20;99.90;;;;;;5156951;27;20047;-74
2021/12/08 03:46:28;;;;;;;9.57;7.30;;;4.20;99.90;;;;;;5156966;27;20055;-74
2021/12/08 03:48:54;;;;;;;9.23;7.28;;;4.20;99.90;;;;;;5156567;27;20059;-73
2021/12/08 03:51:20;;;;;;;10.40;7.32;;;4.30;99.90;;;;;;5156462;27;20054;-75
2021/12/08 03:53:46;;;;;;;13.65;7.68;;;4.30;99.90;;;;;;5156631;27;20042;-75
2021/12/08 03:56:12;;;;;;;13.05;7.80;;;4.30;99.90;;;;;;5156794;27;20043;-74
2021/12/08 03:58:38;;;;;;;11.38;7.63;;;4.30;99.90;;;;;;5138304;27;20050;-73
2021/12/08 04:01:06;;;;;;;9.65;7.80;;;4.40;99.90;;;;;;5155685;27;20063;-74
2021/12/08 04:03:33;;;;;;;12.43;8.23;;;4.30;99.90;;;;;;5157002;27;20167;-74
2021/12/08 04:06:06;;;;;;;12.88;9.70;;;4.40;99.90;;;;;;5126523;27;20180;-74
2021/12/08 04:08:42;;;;;;;15.50;11.63;;;4.40;99.90;;;;;;5154706;27;20045;-75
2021/12/08 04:11:10;;;;;;;13.27;10.38;;;4.50;99.90;;;;;;5156030;27;20422;-74
2021/12/08 04:13:42;;;;;;;12.98;10.73;;;4.50;99.90;;;;;;5156592;27;20167;-74
2021/12/08 04:16:10;;;;;;;16.48;12.90;;;4.50;99.90;;;;;;5156353;27;20046;-75
2021/12/08 04:18:36;;;;;;;14.45;10.80;;;4.60;99.90;;;;;;5156801;27;20038;-73
2021/12/08 04:21:06;;;;;;;12.98;10.30;;;4.60;99.90;;;;;;5156143;27;20042;-73
2021/12/08 04:23:36;;;;;;;14.73;10.80;;;4.60;99.90;;;;;;5156077;27;20049;-74
2021/12/08 04:26:04;;;;;;;13.75;10.10;;;4.60;99.90;;;;;;5156309;27;20042;-74
2021/12/08 04:28:32;;;;;;;14.15;10.82;;;4.70;99.90;;;;;;5156727;27;20440;-74
2021/12/08 04:31:17;;;;;;;12.50;10.23;;;4.70;99.90;;;;;;5144262;27;20047;-73
2021/12/08 04:33:45;;;;;;;13.80;10.90;;;4.70;99.90;;;;;;5156210;27;20070;-74
2021/12/08 04:36:13;;;;;;;13.98;10.38;;;4.70;99.90;;;;;;5144251;27;20437;-75
2021/12/08 04:38:43;;;;;;;13.30;10.25;;;4.70;99.90;;;;;;5151950;27;20042;-74
2021/12/08 04:41:15;;;;;;;12.25;10.20;;;4.70;99.90;;;;;;5155067;27;20121;-75
2021/12/08 04:43:53;;;;;;;11.00;9.63;;;4.70;99.90;;;;;;5155259;27;20082;-74
2021/12/08 05:03:16;;;;;;;16.75;11.05;;;4.80;99.90;;;;;;5137576;27;20123;-76
2021/12/08 05:08:13;;;;;;;14.07;9.23;;;4.90;99.90;;;;;;5155556;27;20051;-75
2021/12/08 05:10:39;;;;;;;12.85;9.18;;;4.90;99.90;;;;;;5149280;27;20045;-74
2021/12/08 05:13:10;;;;;;;13.55;8.95;;;4.90;99.90;;;;;;5155661;27;20046;-74
2021/12/08 05:15:44;;;;;;;12.38;9.38;;;5.00;99.90;;;;;;5155526;27;20121;-75
2021/12/08 05:18:14;;;;;;;10.98;8.60;;;5.00;99.90;;;;;;5155329;27;20050;-75
2021/12/08 05:20:51;;;;;;;10.45;8.07;;;5.00;99.90;;;;;;5155487;27;20432;-76
2021/12/08 05:23:17;;;;;;;11.00;7.70;;;5.00;99.90;;;;;;5154644;27;20043;-76
2021/12/08 05:25:44;;;;;;;11.85;8.13;;;5.00;99.90;;;;;;5141452;27;20544;-76
2021/12/08 05:28:13;;;;;;;12.77;8.10;;;5.10;99.90;;;;;;5134450;27;20414;-73
2021/12/08 05:31:03;;;;;;;12.73;8.05;;;5.00;99.90;;;;;;5136473;27;20172;-75
2021/12/08 05:33:30;;;;;;;10.68;8.35;;;5.10;99.90;;;;;;5121069;27;20047;-76
2021/12/08 05:35:56;;;;;;;12.80;8.50;;;5.20;99.90;;;;;;5146972;27;20051;-76
2021/12/08 05:38:22;;;;;;;12.25;8.38;;;5.20;99.90;;;;;;5154833;27;20039;-75
2021/12/08 05:41:16;;;;;;;12.82;9.02;;;5.20;99.90;;;;;;5155370;27;20130;-75
2021/12/08 05:43:43;;;;;;;12.63;8.25;;;5.20;99.90;;;;;;5146905;27;20461;-76
2021/12/08 05:46:10;;;;;;;14.55;9.25;;;5.30;99.90;;;;;;5136093;27;20074;-75
2021/12/08 05:48:36;;;;;;;10.98;7.97;;;5.30;99.90;;;;;;5154681;27;20057;-74
2021/12/08 05:51:05;;;;;;;11.77;7.10;;;5.30;99.90;;;;;;5155286;27;20051;-75
2021/12/08 05:53:31;;;;;;;10.63;6.93;;;5.30;99.90;;;;;;5154069;27;20053;-76
2021/12/08 05:55:58;;;;;;;12.20;7.10;;;5.30;99.90;;;;;;5155008;27;20046;-76
2021/12/08 05:58:26;;;;;;;11.00;6.95;;;5.30;99.90;;;;;;5141205;27;20051;-75
2021/12/08 06:01:05;;;;;;;10.15;7.80;;;5.20;99.90;;;;;;5134260;27;20115;-75
2021/12/08 06:03:31;;;;;;;10.98;7.18;;;5.20;99.90;;;;;;5133765;27;20096;-76
2021/12/08 06:05:58;;;;;;;12.82;7.00;;;5.20;99.90;;;;;;5143287;27;20411;-75
2021/12/08 06:08:27;;;;;;;11.80;6.18;;;5.10;99.90;;;;;;5135014;27;20050;-75
2021/12/08 06:10:54;;;;;;;8.70;5.78;;;5.10;99.90;;;;;;5154814;27;20073;-75
2021/12/08 06:13:20;;;;;;;14.35;5.90;;;5.10;99.90;;;;;;5154257;27;20384;-76
2021/12/08 06:15:48;;;;;;;11.27;5.68;;;5.10;99.90;;;;;;5135631;27;20046;-76
2021/12/08 06:18:15;;;;;;;7.28;5.13;;;5.10;99.90;;;;;;5153931;27;20042;-76
2021/12/08 06:20:42;;;;;;;8.10;5.32;;;5.10;99.90;;;;;;5154312;27;20046;-75
2021/12/08 06:23:09;;;;;;;9.85;5.45;;;5.10;99.90;;;;;;5141538;27;20050;-76
2021/12/08 06:25:36;;;;;;;10.82;6.07;;;5.10;99.90;;;;;;5133260;27;20103;-76
2021/12/08 06:28:03;;;;;;;10.48;5.28;;;5.10;99.90;;;;;;5117209;27;20035;-75
2021/12/08 06:30:33;;;;;;;8.65;5.10;;;5.20;99.90;;;;;;5153372;27;20053;-74
2021/12/08 06:32:59;;;;;;;8.57;4.97;;;5.20;99.90;;;;;;5154132;27;20042;-75
2021/12/08 06:35:36;;;;;;;11.68;5.68;;;5.30;99.90;;;;;;5152271;27;20479;-75
2021/12/08 06:38:03;;;;;;;8.80;4.80;;;5.30;99.90;;;;;;5136294;27;20130;-75
2021/12/08 06:40:35;;;;;;;10.02;5.00;;;5.40;99.90;;;;;;5134601;27;20099;-75
2021/12/08 06:43:05;;;;;;;8.00;4.93;;;5.40;99.90;;;;;;5154573;27;20043;-75
2021/12/08 06:45:36;;;;;;;6.55;4.38;;;5.40;99.90;;;;;;5153705;27;20039;-76
2021/12/08 06:48:06;;;;;;;6.85;4.15;;;5.40;99.90;;;;;;5154358;27;20039;-76
2021/12/08 06:50:37;;;;;;;8.43;4.10;;;5.50;99.90;;;;;;5152503;27;20051;-75
2021/12/08 06:53:03;;;;;;;10.43;4.60;;;5.40;99.90;;;;;;5154342;27;20103;-76
2021/12/08 06:55:42;;;;;;;7.72;3.95;;;5.40;99.90;;;;;;5153009;27;20043;-76
2021/12/08 06:58:22;;;;;;;7.05;4.07;;;5.50;99.90;;;;;;5136121;27;20058;-76
2021/12/08 07:01:11;;;;;;;7.10;4.50;;;5.40;99.90;;;;;;5153594;27;20046;-74
2021/12/08 07:04:09;;;;;;;7.65;3.75;;;5.50;99.90;;;;;;5134859;27;20125;-76
2021/12/08 07:09:28;;;;;;;8.63;3.70;;;5.50;99.90;;;;;;5153622;27;20050;-73
2021/12/08 07:11:57;;;;;;;5.60;3.60;;;5.60;99.90;;;;;;5149908;27;20091;-75
2021/12/08 07:14:31;;;;;;;7.97;4.05;;;5.60;99.90;;;;;;5139046;27;20491;-76
2021/12/08 07:16:58;;;;;;;8.25;3.63;;;5.60;99.90;;;;;;5133640;28;20086;-76
2021/12/08 07:19:35;;;;;;;8.15;3.72;;;5.50;99.90;;;;;;5133226;28;20043;-73
2021/12/08 07:22:06;;;;;;;7.45;3.63;;;5.50;99.90;;;;;;5146912;27;20050;-85
2021/12/08 07:24:37;;;;;;;5.60;2.90;;;5.40;99.90;;;;;;5153008;27;20068;-76
2021/12/08 07:27:06;;;;;;;6.00;2.97;;;5.40;99.90;;;;;;5153563;27;20043;-75
2021/12/08 07:29:37;;;;;;;7.13;3.10;;;5.40;99.90;;;;;;5152308;27;20539;-75
2021/12/08 07:32:17;;;;;;;7.18;3.75;;;5.30;99.90;;;;;;5152813;27;20406;-74
2021/12/08 07:34:43;;;;;;;8.52;3.20;;;5.30;99.90;;;;;;5153096;27;20042;-75
2021/12/08 07:37:14;;;;;;;6.88;3.00;;;5.20;99.90;;;;;;5153001;27;20121;-75
2021/12/08 07:39:44;;;;;;;8.07;3.20;;;5.20;99.90;;;;;;5153174;27;20082;-76
2021/12/08 07:42:28;;;;;;;4.72;2.85;;;5.10;99.90;;;;;;5153131;27;20137;-74
2021/12/08 07:44:57;;;;;;;5.53;3.05;;;5.20;99.90;;;;;;5153293;27;20145;-76
2021/12/08 07:47:28;;;;;;;9.15;2.97;;;5.20;99.90;;;;;;5156464;27;20065;-75
2021/12/08 07:49:58;;;;;;;6.32;3.75;;;5.20;99.90;;;;;;5137075;27;20050;-74
2021/12/08 07:52:33;;;;;;;8.85;3.05;;;5.20;99.90;;;;;;5157666;27;20058;-76
2021/12/08 07:55:01;;;;;;;6.22;2.97;;;5.20;99.90;;;;;;5157112;27;20066;-73
2021/12/08 07:57:31;;;;;;;7.18;2.90;;;5.20;99.90;;;;;;5148457;27;20031;-75
2021/12/08 08:00:00;;;;;;;4.50;2.38;;;5.20;99.90;;;;;;5151254;27;20095;-75
2021/12/08 08:02:28;;;;;;;6.15;2.53;;;5.20;99.90;;;;;;5154408;27;20085;-74
2021/12/08 08:04:58;;;;;;;5.18;2.60;;;5.20;99.90;;;;;;5153471;27;20650;-78
2021/12/08 08:07:24;;;;;;;6.80;2.45;;;5.10;99.90;;;;;;5153667;27;20487;-74
2021/12/08 08:09:59;;;;;;;7.32;2.47;;;5.20;99.90;;;;;;5135290;27;20483;-78
2021/12/08 08:12:29;;;;;;;6.25;2.40;;;5.10;99.90;;;;;;5153101;27;20081;-77
2021/12/08 08:15:02;;;;;;;9.52;2.55;;;5.10;99.90;;;;;;5153747;27;20043;-78
2021/12/08 08:17:35;;;;;;;6.55;1.90;;;5.10;99.90;;;;;;5153980;27;20095;-76
2021/12/08 08:20:12;;;;;;;6.90;2.60;;;5.10;99.90;;;;;;5132349;27;20070;-78
2021/12/08 08:22:38;;;;;;;6.28;2.13;;;5.00;99.90;;;;;;5135946;27;20047;-77
2021/12/08 08:25:07;;;;;;;5.28;2.42;;;5.00;99.90;;;;;;5153560;27;20525;-78
2021/12/08 08:27:33;;;;;;;6.15;2.40;;;5.10;99.90;;;;;;5135058;27;20066;-77
2021/12/08 08:29:59;;;;;;;5.32;1.95;;;5.10;99.90;;;;;;5152722;27;20096;-75
2021/12/08 08:32:33;;;;;;;4.85;2.10;;;5.10;99.90;;;;;;5135291;27;20130;-79
2021/12/08 08:35:23;;;;;;;7.97;2.60;;;5.10;99.90;;;;;;5152976;27;20054;-77
2021/12/08 08:37:51;;;;;;;8.60;2.40;;;5.20;99.90;;;;;;5134890;27;20050;-77
2021/12/08 08:40:22;;;;;;;8.95;2.60;;;5.20;99.90;;;;;;5153004;27;20483;-78
2021/12/08 08:42:51;;;;;;;8.05;2.05;;;5.20;99.90;;;;;;5151761;27;20049;-78
2021/12/08 08:45:29;;;;;;;5.55;2.10;;;5.30;99.90;;;;;;5134209;27;20035;-76
2021/12/08 08:48:06;;;;;;;7.95;2.00;;;5.30;99.90;;;;;;5145381;27;20047;-78
2021/12/08 08:50:44;;;;;;;5.78;2.05;;;5.40;99.90;;;;;;5132221;27;20047;-79
2021/12/08 08:53:11;;;;;;;5.82;2.17;;;5.40;99.90;;;;;;5134638;27;20035;-75
2021/12/08 08:55:48;;;;;;;4.35;1.80;;;5.50;99.90;;;;;;5133600;27;20122;-76
2021/12/08 08:58:15;;;;;;;6.95;2.25;;;5.40;99.90;;;;;;5150228;27;20042;-75
2021/12/08 09:00:52;;;;;;;7.18;2.42;;;5.50;99.90;;;;;;5150660;27;20042;-74
2021/12/08 09:03:22;;;;;;;7.38;2.35;;;5.50;99.90;;;;;;5132324;27;20061;-77
2021/12/08 09:05:53;;;;;;;7.85;2.72;;;5.60;99.90;;;;;;5148862;27;20034;-78
2021/12/08 09:08:22;;;;;;;7.10;2.92;;;5.60;99.90;;;;;;5132749;27;20504;-78
2021/12/08 09:11:15;;;;;;;9.15;2.70;;;5.70;99.90;;;;;;5131266;27;20043;-75
2021/12/08 09:14:09;;;;;;;7.50;2.38;;;5.80;99.90;;;;;;5131719;27;20091;-74
2021/12/08 09:17:05;;;;;;;7.90;2.33;;;5.80;99.90;;;;;;5122177;27;20493;-78
2021/12/08 09:19:38;;;;;;;7.40;2.42;;;5.90;99.90;;;;;;5144363;27;20078;-78
2021/12/08 09:22:20;;;;;;;5.38;2.33;;;6.00;99.90;;;;;;5147607;27;20103;-77
2021/12/08 09:25:21;;;;;;;6.30;2.50;;;6.00;99.90;;;;;;5138537;27;20054;-76
2021/12/08 09:27:49;;;;;;;;;;;6.10;99.90;;;;;;5119808;27;20054;-77
2021/12/08 09:30:18;;;;;;;8.90;2.00;;;6.10;99.90;;;;;;5143960;27;20380;-77
2021/12/08 09:32:54;;;;;;;8.15;2.25;;;6.10;99.90;;;;;;5131869;27;20039;-75
2021/12/08 09:35:31;;;;;;;7.05;2.30;;;6.00;99.90;;;;;;5132871;27;20096;-77
2021/12/08 09:38:07;;;;;;;6.70;2.35;;;6.00;99.90;;;;;;5130968;27;20047;-79
2021/12/08 09:40:43;;;;;;;8.57;3.05;;;6.00;99.90;;;;;;5131662;27;20047;-77
2021/12/08 09:43:18;;;;;;;7.68;2.65;;;6.00;99.90;;;;;;5130414;27;20535;-78
2021/12/08 09:45:58;;;;;;;10.35;2.20;;;5.90;99.90;;;;;;5131804;27;20043;-78
2021/12/08 09:48:28;;;;;;;7.45;2.67;;;6.00;99.90;;;;;;5131198;27;20043;-79
2021/12/08 09:50:57;;;;;;;6.80;2.50;;;6.00;99.90;;;;;;5142648;27;20050;-75
2021/12/08 09:53:24;;;;;;;8.02;2.63;;;6.00;99.90;;;;;;5152569;27;20051;-79
2021/12/08 09:55:50;;;;;;;10.20;2.50;;;6.00;99.90;;;;;;5150500;27;20125;-78
2021/12/08 09:58:17;;;;;;;7.70;2.55;;;6.10;99.90;;;;;;5153107;27;20038;-78
2021/12/08 10:00:45;;;;;;;7.95;2.70;;;6.10;99.90;;;;;;5153497;27;20042;-78
2021/12/08 10:03:13;;;;;;;6.88;3.13;;;6.10;99.90;;;;;;5154171;27;20046;-77
2021/12/08 10:05:41;;;;;;;6.30;2.08;;;6.10;99.90;;;;;;5136643;27;20046;-76
2021/12/08 10:08:08;;;;;;;8.23;2.40;;;6.20;99.90;;;;;;5154304;27;20039;-78
2021/12/08 10:10:37;;;;;;;7.38;2.35;;;6.30;99.90;;;;;;5134723;27;20047;-77
2021/12/08 10:13:04;;;;;;;6.00;2.13;;;6.30;99.90;;;;;;5133123;27;20058;-79
2021/12/08 10:15:30;;;;;;;5.50;2.65;;;6.40;99.90;;;;;;5115652;27;20524;-79
2021/12/08 10:17:58;;;;;;;5.30;2.10;;;6.30;99.90;;;;;;5133328;27;20479;-79
2021/12/08 10:20:35;;;;;;;7.10;2.47;;;6.40;99.90;;;;;;5133617;27;20530;-78
2021/12/08 10:23:09;;;;;;;7.75;2.97;;;6.40;99.90;;;;;;5144137;27;20578;-78
2021/12/08 10:25:40;;;;;;;7.32;2.60;;;6.40;99.90;;;;;;5145364;27;20058;-77
2021/12/08 10:28:32;;;;;;;7.43;2.67;;;6.40;99.90;;;;;;5139494;27;20126;-77
2021/12/08 10:31:12;;;;;;;6.68;2.20;;;6.40;99.90;;;;;;5123237;27;20480;-78
2021/12/08 10:34:14;;;;;;;7.70;2.53;;;6.40;99.90;;;;;;5149657;27;20499;-80
2021/12/08 10:36:55;;;;;;;6.30;2.42;;;6.50;99.90;;;;;;5130533;27;20035;-77
2021/12/08 10:39:46;;;;;;;9.63;2.72;;;6.40;99.90;;;;;;5134633;27;20054;-78
2021/12/08 10:42:18;;;;;;;7.35;2.58;;;6.40;99.90;;;;;;5137013;27;20050;-77
2021/12/08 10:45:07;;;;;;;8.32;2.20;;;6.40;99.90;;;;;;5145789;27;20495;-78
2021/12/08 10:47:40;;;;;;;6.43;2.40;;;6.40;99.90;;;;;;5136341;27;21364;-78
2021/12/08 10:56:19;;;;;;;5.18;2.25;;;6.30;99.90;;;;;;5123310;27;20121;-79
2021/12/08 10:58:50;;;;;;;6.30;2.38;;;6.30;99.90;;;;;;5122265;28;20376;-79
2021/12/08 11:01:24;;;;;;;6.95;2.42;;;6.30;99.90;;;;;;5150045;27;20050;-78
2021/12/08 11:03:57;;;;;;;8.23;2.72;;;6.30;99.90;;;;;;5149024;27;20047;-78
2021/12/08 11:06:23;;;;;;;9.25;2.55;;;6.40;99.90;;;;;;5143131;27;20047;-79
2021/12/08 11:08:53;;;;;;;8.00;2.72;;;6.30;99.90;;;;;;5121845;28;20381;-78
2021/12/08 11:11:22;;;;;;;5.93;2.50;;;6.40;99.90;;;;;;5115158;27;20043;-78
2021/12/08 11:13:54;;;;;;;6.72;2.60;;;6.40;99.90;;;;;;5130134;28;20437;-80
2021/12/08 11:16:24;;;;;;;6.88;2.67;;;6.30;99.90;;;;;;5141671;27;20038;-78
2021/12/08 11:18:53;;;;;;;7.45;2.95;;;6.30;99.90;;;;;;5152709;27;20483;-79
2021/12/08 11:21:24;;;;;;;7.25;2.38;;;6.30;99.90;;;;;;5150670;27;20054;-75
2021/12/08 11:23:53;;;;;;;7.03;2.60;;;6.20;99.90;;;;;;5140461;27;20034;-76
2021/12/08 11:26:37;;;;;;;8.10;2.45;;;6.30;99.90;;;;;;5145636;27;20043;-78
2021/12/08 11:29:14;;;;;;;8.32;3.40;;;6.30;99.90;;;;;;5141474;27;20043;-74
2021/12/08 11:32:03;;;;;;;8.73;2.80;;;6.30;99.90;;;;;;5140702;27;20066;-78
2021/12/08 11:34:39;;;;;;;9.02;2.65;;;6.30;99.90;;;;;;5128353;27;20130;-77
2021/12/08 11:37:15;;;;;;;6.60;2.25;;;6.30;99.90;;;;;;5122812;27;20047;-75
2021/12/08 11:39:51;;;;;;;7.28;2.63;;;6.30;99.90;;;;;;5153951;27;20044;-77
2021/12/08 11:42:22;;;;;;;8.60;2.42;;;6.30;99.90;;;;;;5145457;27;20122;-78
2021/12/08 11:44:55;;;;;;;8.13;2.35;;;6.40;99.90;;;;;;5139108;27;20051;-77
2021/12/08 11:47:28;;;;;;;8.65;2.90;;;6.40;99.90;;;;;;5138708;27;20040;-77
2021/12/08 11:49:56;;;;;;;9.90;3.00;;;6.30;99.90;;;;;;5142526;27;20063;-75
2021/12/08 11:52:32;;;;;;;6.75;2.67;;;6.30;99.90;;;;;;5127769;27;20051;-73
2021/12/08 11:55:18;;;;;;;5.63;2.45;;;6.40;99.90;;;;;;5132965;27;20054;-78
2021/12/08 11:57:53;;;;;;;4.47;2.38;;;6.40;99.90;;;;;;5136049;27;20054;-77
2021/12/08 12:00:23;;;;;;;8.10;2.55;;;6.40;99.90;;;;;;5145061;27;20406;-77
2021/12/08 12:02:58;;;;;;;5.97;2.17;;;6.40;99.90;;;;;;5143175;27;20510;-74
2021/12/08 12:05:33;;;;;;;8.10;2.72;;;6.40;99.90;;;;;;5152872;27;20043;-74
2021/12/08 12:08:00;;;;;;;4.47;2.25;;;6.30;99.90;;;;;;5142447;27;20404;-74
2021/12/08 12:10:31;;;;;;;8.88;2.60;;;6.40;99.90;;;;;;5145851;27;20412;-75
2021/12/08 12:12:58;;;;;;;4.53;2.67;;;6.30;99.90;;;;;;5145464;27;20055;-75
2021/12/08 12:15:24;;;;;;;6.53;2.50;;;6.40;99.90;;;;;;5154048;27;20466;-74
2021/12/08 12:17:51;;;;;;;6.38;2.40;;;6.40;99.90;;;;;;5132775;27;20039;-75
2021/12/08 12:20:38;;;;;;;3.20;2.10;;;6.40;99.90;;;;;;5144172;27;20064;-76
2021/12/08 12:23:44;;;;;;;7.70;2.33;;;6.40;99.90;;;;;;5140795;27;20051;-78
2021/12/08 12:26:22;;;;;;;5.63;1.85;;;6.50;99.90;;;;;;5124340;27;20391;-70
2021/12/08 12:28:51;;;;;;;5.18;2.30;;;6.50;99.90;;;;;;5142738;27;20050;-76
2021/12/08 12:31:38;;;;;;;10.13;2.65;;;6.50;99.90;;;;;;5151816;27;20600;-76
2021/12/08 12:34:27;;;;;;;8.05;2.40;;;6.50;99.90;;;;;;5143198;27;20043;-76
2021/12/08 12:36:54;;;;;;;7.10;1.95;;;6.50;99.90;;;;;;5142209;27;20506;-76
2021/12/08 12:39:26;;;;;;;9.18;2.38;;;6.60;99.90;;;;;;5153124;27;20053;-75
2021/12/08 12:42:15;;;;;;;10.75;2.60;;;6.60;99.90;;;;;;5132623;27;20063;-76
2021/12/08 12:44:45;;;;;;;6.35;2.10;;;6.60;99.90;;;;;;5147650;27;20038;-74
2021/12/08 12:47:22;;;;;;;9.77;2.30;;;6.70;99.90;;;;;;5139910;27;20118;-76
2021/12/08 12:50:21;;;;;;;4.90;2.30;;;6.60;99.90;;;;;;5139862;27;20111;-74
2021/12/08 12:52:55;;;;;;;5.90;2.80;;;6.60;99.90;;;;;;5142940;27;20450;-75
2021/12/08 12:55:30;;;;;;;9.75;2.55;;;6.60;99.90;;;;;;5151628;27;20103;-75
2021/12/08 12:58:01;;;;;;;5.72;2.20;;;6.60;99.90;;;;;;5141289;27;20391;-77
2021/12/08 13:00:30;;;;;;;5.95;2.00;;;6.60;99.90;;;;;;5145038;27;20054;-75
2021/12/08 13:02:55;;;;;;;9.70;2.30;;;6.60;99.90;;;;;;5149195;27;20546;-75
2021/12/08 13:05:21;;;;;;;5.93;2.20;;;6.60;99.90;;;;;;5154721;27;20050;-75
2021/12/08 13:08:00;;;;;;;4.75;2.10;;;6.60;99.90;;;;;;5149802;27;20050;-76
2021/12/08 13:10:39;;;;;;;6.30;2.10;;;6.60;99.90;;;;;;5150869;27;20039;-75
2021/12/08 13:13:15;;;;;;;6.57;2.05;;;6.60;99.90;;;;;;5147235;27;20441;-75
2021/12/08 13:15:45;;;;;;;5.90;1.95;;;6.60;99.90;;;;;;5150702;27;20050;-76
2021/12/08 13:18:16;;;;;;;6.63;1.92;;;6.60;99.90;;;;;;5150400;27;20127;-75
2021/12/08 13:20:54;;;;;;;7.03;1.90;;;6.60;99.90;;;;;;5143330;27;20034;-76
2021/12/08 13:23:23;;;;;;;7.90;1.83;;;6.60;99.90;;;;;;5122104;27;20087;-72
2021/12/08 13:26:05;;;;;;;8.38;2.45;;;6.60;99.90;;;;;;5151573;27;20055;-75
2021/12/08 13:28:51;;;;;;;3.90;1.90;;;6.60;99.90;;;;;;5152830;27;20042;-77
2021/12/08 13:34:02;;;;;;;7.85;2.20;;;6.60;99.90;;;;;;5151936;27;20130;-83
2021/12/08 13:36:36;;;;;;;5.20;2.20;;;6.60;99.90;;;;;;5141373;27;20353;-82
2021/12/08 13:39:33;;;;;;;7.97;2.08;;;6.60;99.90;;;;;;5143240;27;20086;-83
2021/12/08 13:42:01;;;;;;;6.05;2.17;;;6.60;99.90;;;;;;5136138;27;20107;-83
2021/12/08 13:44:37;;;;;;;10.30;2.60;;;6.60;99.90;;;;;;5146792;27;20103;-82
2021/12/08 13:47:09;;;;;;;9.35;2.65;;;6.60;99.90;;;;;;5146962;27;20111;-83
2021/12/08 13:49:48;;;;;;;6.50;2.30;;;6.60;99.90;;;;;;5138014;27;20051;-83
2021/12/08 13:52:17;;;;;;;7.30;2.35;;;6.60;99.90;;;;;;5139949;27;20091;-82
2021/12/08 13:54:51;;;;;;;7.45;2.50;;;6.50;99.90;;;;;;5145267;27;20114;-83
2021/12/08 13:57:33;;;;;;;8.50;2.45;;;6.60;99.90;;;;;;5130204;27;20078;-80
2021/12/08 14:00:08;;;;;;;7.25;2.42;;;6.60;99.90;;;;;;5130519;27;20128;-80
2021/12/08 14:02:37;;;;;;;5.70;2.17;;;6.60;99.90;;;;;;5145518;27;20047;-83
2021/12/08 14:05:09;;;;;;;11.32;2.33;;;6.50;99.90;;;;;;5153822;27;20054;-81
2021/12/08 14:07:39;;;;;;;5.35;2.10;;;6.50;99.90;;;;;;5151288;27;20115;-83